Latest Coastal Weather Observations for Bedout Island

IDW60701

Issued at 9:12 am WST Saturday 5 September 2015 (issued every 10 minutes, with the page automatically refreshed every 10 minutes)

About coastal observations | Map of coastal stations | Coastal observations for WA | Marine services | Other Formats
Station Details ID: 004100 Name: BEDOUT ISLAND Lat: -19.59 Lon: 119.10 Height: 8.6 m
Data from the previous 72 hours. | See also: Recent months at Bedout Island
Date/Time
WST
Temp

°C
Wind Pressure Rain
since 9am
mm
Weather Cloud Vis
km
Sea
Height
m
Swell
Dir
 
Speed
knots
Gust
knots
hPa Trend Height
m
Period
s
Dir
05/09:00am 24.6 WSW 11 13 1018.3 - - - - - - - - -
05/08:30am 24.0 WSW 11 13 1018.2 - - - - - - - - -
05/08:00am 23.3 WSW 14 16 1017.9 - - - - - - - - -
05/07:30am 22.4 WSW 14 16 1017.8 - - - - - - - - -
05/07:00am 21.7 WSW 14 16 1017.6 - - - - - - - - -
05/06:30am 21.3 WSW 14 17 1017.5 - - - - - - - - -
05/06:00am 21.1 WSW 13 15 1017.2 - - - - - - - - -
05/05:30am 21.2 WSW 14 16 1017.0 - - - - - - - - -
05/05:00am 21.3 WSW 15 18 1016.6 - - - - - - - - -
05/04:30am 21.3 WSW 15 17 1016.3 - - - - - - - - -
05/04:00am 21.3 W 14 16 1016.5 - - - - - - - - -
05/03:30am 21.4 W 15 17 1016.5 - - - - - - - - -
05/03:00am 21.4 W 15 17 1016.2 - - - - - - - - -
05/02:30am 21.6 W 16 19 1016.5 - - - - - - - - -
05/02:00am 21.7 W 14 16 1016.8 - - - - - - - - -
05/01:30am 21.6 W 14 15 1017.0 - - - - - - - - -
05/01:00am 21.5 W 13 15 1017.3 - - - - - - - - -
05/12:30am 21.5 WNW 12 15 1017.6 - - - - - - - - -
05/12:00am 21.3 WNW 11 13 1017.7 - - - - - - - - -
 
Date/Time
WST
Temp

°C
Wind Pressure Rain
since 9am
mm
Weather Cloud Vis
km
Sea
Height
m
Swell
Dir
 
Speed
knots
Gust
knots
hPa Trend Height
m
Period
s
Dir
04/11:30pm 21.1 NW 11 13 1017.8 - - - - - - - - -
04/11:00pm 20.6 NW 10 11 1017.9 - - - - - - - - -
04/10:30pm 20.1 NW 9 10 1018.0 - - - - - - - - -
04/10:00pm 20.2 WNW 8 9 1018.1 - - - - - - - - -
04/09:30pm 20.2 NW 8 9 1018.2 - - - - - - - - -
04/09:00pm 20.4 NW 8 9 1018.1 - - - - - - - - -
04/08:30pm 20.8 NW 9 10 1018.2 - - - - - - - - -
04/08:00pm 21.0 WNW 9 10 1018.1 - - - - - - - - -
04/07:30pm 21.3 NW 8 11 1017.6 - - - - - - - - -
04/07:00pm 21.7 W 12 15 1017.6 - - - - - - - - -
04/06:30pm 22.0 W 13 15 1017.2 - - - - - - - - -
04/05:30pm 23.5 W 11 13 1016.7 - - - - - - - - -
04/05:00pm 24.4 W 11 13 1016.3 - - - - - - - - -
04/04:30pm 25.0 W 10 12 1016.1 - - - - - - - - -
04/04:00pm 25.6 WNW 8 10 1016.1 - - - - - - - - -
04/03:30pm 25.7 WNW 8 9 1016.1 - - - - - - - - -
04/03:00pm 25.8 WNW 7 8 1016.2 - - - - - - - - -
04/02:30pm 26.6 W 9 11 1016.3 - - - - - - - - -
04/02:00pm 26.5 W 9 11 1016.4 - - - - - - - - -
04/01:30pm 26.6 W 9 10 1016.7 - - - - - - - - -
04/01:00pm 26.6 WNW 7 9 1017.1 - - - - - - - - -
04/12:30pm 25.9 WNW 7 8 1017.4 - - - - - - - - -
04/12:00pm 26.0 WNW 7 8 1017.5 - - - - - - - - -
04/11:30am 26.1 WNW 6 8 1018.2 - - - - - - - - -
04/11:00am 25.6 WNW 6 8 1018.4 - - - - - - - - -
04/10:30am 25.4 W 5 7 1018.4 - - - - - - - - -
04/10:00am 24.7 ESE 2 5 1018.5 - - - - - - - - -
04/09:30am 25.0 ESE 4 5 1018.4 - - - - - - - - -
04/09:00am 24.6 ESE 4 5 1018.2 - - - - - - - - -
04/08:30am 23.8 SSE 6 7 1018.3 - - - - - - - - -
04/08:00am 23.7 SSE 6 8 1018.1 - - - - - - - - -
04/07:30am 23.3 SSE 7 8 1017.8 - - - - - - - - -
04/07:00am 22.2 S 7 10 1017.7 - - - - - - - - -
04/06:30am 21.5 SW 7 8 1017.4 - - - - - - - - -
04/06:00am 21.5 SW 9 11 1017.0 - - - - - - - - -
04/05:30am 21.7 WSW 10 11 1016.8 - - - - - - - - -
04/05:00am 21.9 WSW 10 12 1016.5 - - - - - - - - -
04/04:30am 22.0 WSW 11 13 1016.3 - - - - - - - - -
04/04:00am 22.0 WSW 10 14 1016.1 - - - - - - - - -
04/03:30am 21.9 WSW 12 14 1016.1 - - - - - - - - -
04/03:00am 22.0 W 12 14 1016.0 - - - - - - - - -
04/02:30am 21.9 W 11 13 1016.3 - - - - - - - - -
04/02:00am 21.7 W 11 13 1016.4 - - - - - - - - -
04/01:30am 21.8 W 11 13 1016.5 - - - - - - - - -
04/01:00am 21.7 WNW 10 13 1016.7 - - - - - - - - -
04/12:30am 21.6 WNW 10 12 1017.1 - - - - - - - - -
04/12:00am 21.5 WNW 9 11 1017.3 - - - - - - - - -
 
Date/Time
WST
Temp

°C
Wind Pressure Rain
since 9am
mm
Weather Cloud Vis
km
Sea
Height
m
Swell
Dir
 
Speed
knots
Gust
knots
hPa Trend Height
m
Period
s
Dir
03/11:30pm 21.4 WNW 9 11 1017.7 - - - - - - - - -
03/11:00pm 21.4 WNW 9 11 1017.7 - - - - - - - - -
03/10:30pm 21.1 WNW 9 10 1017.8 - - - - - - - - -
03/10:00pm 21.0 WNW 8 10 1018.1 - - - - - - - - -
03/09:30pm 20.5 WNW 7 8 1018.3 - - - - - - - - -
03/09:00pm 20.7 W 6 7 1018.1 - - - - - - - - -
03/08:30pm 20.8 W 6 7 1018.0 - - - - - - - - -
03/08:00pm 21.0 W 6 8 1017.8 - - - - - - - - -
03/07:30pm 21.4 W 7 8 1017.6 - - - - - - - - -
03/07:00pm 21.1 W 6 7 1017.2 - - - - - - - - -
03/06:30pm 21.4 W 6 8 1017.0 - - - - - - - - -
03/06:00pm 21.9 W 7 8 1016.7 - - - - - - - - -
03/05:30pm 23.5 W 6 7 1016.7 - - - - - - - - -
03/05:00pm 24.4 WNW 5 6 1016.4 - - - - - - - - -
03/04:30pm 25.0 WNW 4 6 1016.4 - - - - - - - - -
03/04:00pm 25.3 WNW 5 6 1016.3 - - - - - - - - -
03/03:30pm 25.2 WNW 5 7 1016.3 - - - - - - - - -
03/03:00pm 25.5 NW 5 7 1016.2 - - - - - - - - -
03/02:30pm 26.7 N 5 7 1016.2 - - - - - - - - -
03/02:00pm 26.7 NNE 6 7 1016.2 - - - - - - - - -
03/01:30pm 26.0 NNE 6 7 1016.3 - - - - - - - - -
03/01:00pm 26.0 NNE 5 6 1016.5 - - - - - - - - -
03/12:30pm 25.9 E 4 5 1016.7 - - - - - - - - -
03/12:00pm 25.5 E 4 5 1016.9 - - - - - - - - -
03/11:30am 26.0 E 4 6 1017.3 - - - - - - - - -
03/11:00am 25.3 ESE 5 6 1017.5 - - - - - - - - -
03/10:30am 26.0 ESE 6 7 1017.8 - - - - - - - - -
03/10:00am 25.4 SE 7 9 1017.8 - - - - - - - - -
03/09:30am 25.8 SE 9 11 1017.8 - - - - - - - - -
03/09:00am 24.8 S 8 10 1017.6 - - - - - - - - -
03/08:30am 23.3 S 8 11 1017.6 - - - - - - - - -
03/08:00am 22.8 S 10 12 1017.4 - - - - - - - - -
03/07:30am 21.8 S 10 11 1017.1 - - - - - - - - -
03/07:00am 20.8 S 9 11 1017.0 - - - - - - - - -
03/06:30am 20.2 S 9 11 1016.9 - - - - - - - - -
03/06:00am 20.3 S 8 9 1016.4 - - - - - - - - -
03/05:30am 20.4 S 8 9 1016.4 - - - - - - - - -
03/05:00am 20.8 S 10 12 1016.2 - - - - - - - - -
03/04:30am 20.9 S 10 12 1016.1 - - - - - - - - -
03/04:00am 20.9 S 11 12 1016.0 - - - - - - - - -
03/03:30am 21.0 S 11 13 1015.9 - - - - - - - - -
03/03:00am 22.0 SSW 10 12 1015.9 - - - - - - - - -
03/02:30am 22.1 SW 11 13 1016.2 - - - - - - - - -
03/02:00am 22.1 SW 11 12 1016.2 - - - - - - - - -
03/01:30am 22.1 WSW 9 10 1016.0 - - - - - - - - -
03/01:00am 21.9 W 7 8 1016.2 - - - - - - - - -
03/12:30am 22.1 WSW 8 9 1016.3 - - - - - - - - -
03/12:00am 22.2 W 9 13 1016.7 - - - - - - - - -
 
Date/Time
WST
Temp

°C
Wind Pressure Rain
since 9am
mm
Weather Cloud Vis
km
Sea
Height
m
Swell
Dir
 
Speed
knots
Gust
knots
hPa Trend Height
m
Period
s
Dir
02/11:30pm 22.3 NW 12 14 1016.4 - - - - - - - - -
02/11:00pm 22.2 NW 12 13 1016.5 - - - - - - - - -
02/10:30pm 22.1 NNW 11 13 1016.6 - - - - - - - - -
02/10:00pm 22.3 NNW 10 12 1016.7 - - - - - - - - -
02/09:30pm 22.0 N 10 11 1016.6 - - - - - - - - -
02/09:00pm 22.1 N 10 13 1016.2 - - - - - - - - -
02/08:30pm 22.1 N 11 13 1016.1 - - - - - - - - -
02/08:00pm 22.0 N 11 13 1015.9 - - - - - - - - -
02/07:30pm 22.3 N 11 13 1015.9 - - - - - - - - -
02/07:00pm 22.4 NNE 13 15 1015.6 - - - - - - - - -
02/06:30pm 22.5 NNE 13 15 1015.3 - - - - - - - - -
02/06:00pm 22.9 NNE 14 15 1015.0 - - - - - - - - -
02/05:30pm 23.4 NE 13 14 1014.9 - - - - - - - - -
02/05:00pm 24.2 NE 12 13 1014.8 - - - - - - - - -
02/04:30pm 24.9 NE 13 15 1014.8 - - - - - - - - -
02/04:00pm 25.3 ENE 13 15 1014.7 - - - - - - - - -
02/03:30pm 25.6 ENE 14 16 1014.7 - - - - - - - - -
02/03:00pm 25.8 ENE 15 17 1014.6 - - - - - - - - -
02/02:30pm 25.8 ENE 16 18 1015.0 - - - - - - - - -
02/02:00pm 26.0 E 17 19 1015.2 - - - - - - - - -
02/01:30pm 26.0 E 17 19 1015.4 - - - - - - - - -
02/01:00pm 26.0 E 18 21 1015.6 - - - - - - - - -
02/12:30pm 25.4 E 18 21 1016.0 - - - - - - - - -
02/12:00pm 25.4 E 19 22 1016.2 - - - - - - - - -
02/11:30am 25.1 E 20 23 1016.5 - - - - - - - - -
02/11:00am 24.9 E 21 24 1016.9 - - - - - - - - -
02/10:30am 24.2 ESE 19 22 1017.3 - - - - - - - - -
02/10:00am 23.7 ESE 22 25 1017.4 - - - - - - - - -
02/09:30am 23.8 ESE 22 26 1017.2 - - - - - - - - -

Other Formats:

Comma delimited format used in spreadsheet applications
http://www.bom.gov.au/fwo/IDW60701/IDW60701.94310.axf

JavaScript Object Notation format (JSON) in row-major order
http://www.bom.gov.au/fwo/IDW60701/IDW60701.94310.json